Time;durP1;ratioP1;P1;durP2;ratioP2;P2;SDS_P1;SDS_P2;PMS_P1;PMS_P2;Temp;Humidity;BMP_temperature;BMP_pressure;BME280_temperature;BME280_humidity;BME280_pressure;Samples;Min_cycle;Max_cycle;Signal;HPM_P1;HPM_P2
2023/03/18 00:00:12;;;;;;;;;14.00;12.67;;;;;14.58;100.00;100148.00;4848682;29;45735;-77
2023/03/18 00:02:39;;;;;;;;;14.00;13.67;;;;;14.52;100.00;100150.72;4832364;29;47417;-77
2023/03/18 00:05:06;;;;;;;;;13.00;13.00;;;;;14.53;100.00;100148.94;4848315;29;45452;-77
2023/03/18 00:07:34;;;;;;;;;17.67;17.67;;;;;14.43;100.00;100149.94;4848303;29;45482;-77
2023/03/18 00:10:02;;;;;;;;;15.67;15.67;;;;;14.35;100.00;100150.91;4847442;29;45595;-76
2023/03/18 00:12:28;;;;;;;;;14.67;14.67;;;;;14.34;100.00;100162.53;4846607;29;46612;-76
2023/03/18 00:14:53;;;;;;;;;19.00;17.00;;;;;14.28;100.00;100145.63;4846690;29;45495;-76
2023/03/18 00:17:20;;;;;;;;;18.00;17.67;;;;;14.36;100.00;100138.41;4829705;29;45423;-76
2023/03/18 00:19:47;;;;;;;;;19.67;18.00;;;;;14.21;100.00;100148.38;4831221;29;45414;-76
2023/03/18 00:22:13;;;;;;;;;20.00;18.67;;;;;14.17;100.00;100149.31;4829731;29;48312;-77
2023/03/18 00:24:38;;;;;;;;;19.33;16.67;;;;;14.19;100.00;100158.19;4846648;29;45519;-77
2023/03/18 00:27:04;;;;;;;;;14.00;14.00;;;;;14.18;100.00;100163.59;4847583;29;45623;-76
2023/03/18 00:29:29;;;;;;;;;18.00;16.67;;;;;14.15;100.00;100167.16;4847422;29;45460;-77
2023/03/18 00:31:56;;;;;;;;;18.67;16.67;;;;;14.11;100.00;100160.06;4846402;29;46224;-77
2023/03/18 00:34:22;;;;;;;;;18.67;17.33;;;;;14.11;100.00;100173.44;4846585;29;45411;-77
2023/03/18 00:36:49;;;;;;;;;13.33;13.33;;;;;14.09;100.00;100169.88;4829727;29;45351;-77
2023/03/18 00:39:17;;;;;;;;;21.00;16.00;;;;;14.03;100.00;100169.94;4833240;29;45516;-77
2023/03/18 00:41:43;;;;;;;;;17.67;17.33;;;;;14.04;100.00;100166.38;4827928;29;47035;-77
2023/03/18 00:44:09;;;;;;;;;15.67;15.67;;;;;14.02;100.00;100162.84;4810977;29;45473;-76
2023/03/18 00:46:38;;;;;;;;;16.00;14.00;;;;;14.05;100.00;100159.25;4827879;29;45724;-76
2023/03/18 00:49:07;;;;;;;;;18.33;15.00;;;;;14.09;100.00;100164.53;4811130;29;45466;-76
2023/03/18 00:51:38;;;;;;;;;13.33;13.33;;;;;14.06;100.00;100156.56;4827760;29;46422;-77
2023/03/18 00:54:11;;;;;;;;;15.33;15.33;;;;;14.07;100.00;100161.00;4811001;29;45520;-77
2023/03/18 00:56:37;;;;;;;;;15.67;14.00;;;;;13.94;100.00;100164.69;4828350;29;45699;-77
2023/03/18 00:59:07;;;;;;;;;15.67;13.00;;;;;13.96;100.00;100178.94;4812314;29;45463;-77
2023/03/18 01:01:32;;;;;;;;;17.00;17.00;;;;;13.91;100.00;100167.38;4829555;29;46229;-77
2023/03/18 01:03:58;;;;;;;;;10.00;10.00;;;;;13.92;100.00;100174.53;4828955;29;45767;-77
2023/03/18 01:06:27;;;;;;;;;16.67;16.67;;;;;14.01;100.00;100177.09;4828600;29;45323;-77
2023/03/18 01:08:54;;;;;;;;;17.00;15.67;;;;;13.90;100.00;100174.53;4828725;29;45463;-76
2023/03/18 01:11:20;;;;;;;;;14.67;14.67;;;;;13.89;100.00;100185.22;4811668;29;46369;-77
2023/03/18 01:13:46;;;;;;;;;14.00;14.00;;;;;13.93;100.00;100176.28;4827912;29;45421;-76
2023/03/18 01:16:12;;;;;;;;;16.33;15.00;;;;;13.94;100.00;100164.69;4828168;29;45579;-77
2023/03/18 01:18:39;;;;;;;;;13.00;12.00;;;;;13.96;100.00;100150.41;4811554;29;45407;-78
2023/03/18 01:21:05;;;;;;;;;18.00;15.67;;;;;13.95;100.00;100161.13;4811247;29;48407;-77
2023/03/18 01:23:30;;;;;;;;;12.00;12.00;;;;;13.94;100.00;100154.88;4828280;29;45593;-77
2023/03/18 01:25:56;;;;;;;;;13.00;13.00;;;;;13.98;100.00;100153.06;4828716;29;45506;-77
2023/03/18 01:28:22;;;;;;;;;19.00;16.67;;;;;13.94;100.00;100156.69;4811371;29;45767;-77
2023/03/18 01:30:49;;;;;;;;;15.00;15.00;;;;;14.01;100.00;100147.69;4828910;29;45468;-77
2023/03/18 01:33:15;;;;;;;;;12.67;10.67;;;;;13.91;100.00;100146.00;4812041;29;45446;-77
2023/03/18 01:35:41;;;;;;;;;15.00;15.00;;;;;13.90;100.00;100131.75;4827860;29;45448;-77
2023/03/18 01:38:07;;;;;;;;;15.67;12.67;;;;;13.82;100.00;100127.38;4812514;29;45459;-77
2023/03/18 01:40:35;;;;;;;;;13.33;11.33;;;;;13.89;100.00;100137.09;4811412;29;45849;-77
2023/03/18 01:43:11;;;;;;;;;12.33;12.33;;;;;13.97;100.00;100130.78;4811844;29;45365;-77
2023/03/18 01:45:46;;;;;;;;;18.00;13.67;;;;;13.91;100.00;100135.31;4811430;29;45406;-78
2023/03/18 01:48:16;;;;;;;;;14.33;14.33;;;;;13.95;100.00;100129.03;4828082;29;45412;-77
2023/03/18 01:50:43;;;;;;;;;14.33;13.33;;;;;13.85;100.00;100138.03;4811975;29;47158;-77
2023/03/18 01:53:15;;;;;;;;;13.67;13.67;;;;;13.94;100.00;100143.31;4810919;29;45395;-77
2023/03/18 01:55:42;;;;;;;;;14.33;13.33;;;;;13.88;100.00;100138.91;4810630;29;45451;-77
2023/03/18 01:58:27;;;;;;;;;10.33;10.33;;;;;13.97;100.00;100136.13;4811922;29;45487;-77
2023/03/18 02:00:59;;;;;;;;;15.00;15.00;;;;;13.98;100.00;100139.72;4812002;29;46435;-77
2023/03/18 02:03:26;;;;;;;;;19.00;17.00;;;;;13.89;100.00;100121.94;4811689;29;45443;-77
2023/03/18 02:05:52;;;;;;;;;12.67;12.67;;;;;13.82;100.00;100122.03;4812054;29;45459;-77
2023/03/18 02:08:18;;;;;;;;;19.33;17.33;;;;;13.79;100.00;100110.47;4810556;29;45493;-76
2023/03/18 02:10:45;;;;;;;;;17.67;16.33;;;;;13.77;100.00;100111.38;4831322;29;46295;-77
2023/03/18 02:13:12;;;;;;;;;16.67;15.33;;;;;13.80;100.00;100120.25;4827325;29;45520;-77
2023/03/18 02:15:46;;;;;;;;;18.67;14.33;;;;;13.88;100.00;100120.19;4826261;29;45463;-77
2023/03/18 02:18:18;;;;;;;;;15.67;15.67;;;;;13.94;100.00;100124.59;4826229;29;45760;-77
2023/03/18 02:21:20;;;;;;;;;19.67;17.33;;;;;14.02;100.00;100128.09;4827030;29;45992;-77
2023/03/18 02:24:09;;;;;;;;;11.00;11.00;;;;;13.83;100.00;100137.16;4826892;29;45416;-77
2023/03/18 02:26:53;;;;;;;;;17.33;16.67;;;;;14.01;100.00;100127.19;4788483;29;45435;-76
2023/03/18 02:29:20;;;;;;;;;13.00;13.00;;;;;13.87;100.00;100123.75;4788312;29;45672;-76
2023/03/18 02:31:47;;;;;;;;;15.00;13.33;;;;;13.84;100.00;100134.50;4787978;29;46285;-76
2023/03/18 02:34:14;;;;;;;;;12.00;12.00;;;;;13.88;100.00;100130.00;4772599;29;45588;-76
2023/03/18 02:36:40;;;;;;;;;15.00;13.67;;;;;13.86;100.00;100121.13;4787824;29;45528;-77
2023/03/18 02:39:07;;;;;;;;;12.33;11.67;;;;;13.86;100.00;100115.78;4773812;29;45489;-76
2023/03/18 02:41:34;;;;;;;;;11.33;11.33;;;;;13.92;100.00;100137.09;4788755;29;47349;-77
2023/03/18 02:44:00;;;;;;;;;14.00;9.33;;;;;13.88;100.00;100135.34;4774075;29;45494;-77
2023/03/18 02:46:31;;;;;;;;;14.00;13.00;;;;;14.03;100.00;100145.00;4786559;29;45475;-77
2023/03/18 02:49:00;;;;;;;;;11.00;11.00;;;;;13.98;100.00;100143.25;4788578;29;45935;-76
2023/03/18 02:51:26;;;;;;;;;11.00;11.00;;;;;13.95;100.00;100142.41;4788716;29;46191;-76
2023/03/18 02:54:02;;;;;;;;;14.00;11.33;;;;;14.12;100.00;100140.47;4787666;29;45872;-77
2023/03/18 02:56:28;;;;;;;;;14.00;12.33;;;;;13.97;100.00;100136.13;4787552;29;45953;-77
2023/03/18 02:58:54;;;;;;;;;7.33;7.33;;;;;13.99;100.00;100130.78;4773072;29;45517;-77
2023/03/18 03:01:21;;;;;;;;;8.33;8.00;;;;;14.15;100.00;100135.06;4787885;29;45980;-77
2023/03/18 03:03:47;;;;;;;;;12.33;10.33;;;;;14.04;100.00;100142.31;4801935;29;45474;-77
2023/03/18 03:06:12;;;;;;;;;9.00;9.00;;;;;14.03;100.00;100128.97;4827286;29;45512;-77
2023/03/18 03:08:39;;;;;;;;;9.67;9.67;;;;;14.09;100.00;100139.59;4827166;29;45783;-77
2023/03/18 03:11:04;;;;;;;;;6.00;6.00;;;;;14.05;100.00;100146.75;4826222;29;45881;-76
2023/03/18 03:13:31;;;;;;;;;6.00;6.00;;;;;14.13;100.00;100147.56;4825937;29;45517;-76
2023/03/18 03:15:56;;;;;;;;;10.67;8.00;;;;;14.06;100.00;100148.53;4809821;29;45578;-76
2023/03/18 03:18:22;;;;;;;;;10.00;9.00;;;;;14.07;100.00;100146.75;4810153;29;45337;-76
2023/03/18 03:20:49;;;;;;;;;9.33;8.33;;;;;14.14;100.00;100149.34;4809555;29;47161;-78
2023/03/18 03:23:15;;;;;;;;;7.67;7.67;;;;;14.03;100.00;100155.69;4826872;29;45362;-77
2023/03/18 03:25:43;;;;;;;;;8.33;8.33;;;;;14.02;100.00;100149.47;4809897;29;45422;-77
2023/03/18 03:28:12;;;;;;;;;10.00;8.33;;;;;14.11;100.00;100151.16;4827514;29;45463;-77
2023/03/18 03:30:37;;;;;;;;;7.67;7.67;;;;;13.94;100.00;100146.00;4811592;29;47762;-77
2023/03/18 03:33:04;;;;;;;;;5.00;5.00;;;;;14.02;100.00;100154.81;4827087;29;45430;-78
2023/03/18 03:35:29;;;;;;;;;11.00;9.33;;;;;13.97;100.00;100151.28;4811637;29;45439;-77
2023/03/18 03:37:55;;;;;;;;;8.00;8.00;;;;;13.94;100.00;100156.69;4826226;29;45519;-76
2023/03/18 03:40:21;;;;;;;;;8.33;8.00;;;;;13.95;100.00;100145.06;4826423;29;45398;-76
2023/03/18 03:42:47;;;;;;;;;9.00;9.00;;;;;14.00;100.00;100148.59;4810457;29;45603;-77
2023/03/18 03:45:15;;;;;;;;;8.00;8.00;;;;;14.07;100.00;100160.13;4828105;29;45864;-76
2023/03/18 03:47:47;;;;;;;;;5.00;5.00;;;;;14.24;100.00;100154.59;4824899;29;45555;-77
2023/03/18 03:50:15;;;;;;;;;5.00;5.00;;;;;14.21;100.00;100161.75;4808656;29;47394;-76
2023/03/18 03:52:44;;;;;;;;;5.00;4.67;;;;;14.29;100.00;100167.03;4808782;29;45428;-77
2023/03/18 03:55:13;;;;;;;;;6.00;6.00;;;;;14.28;100.00;100167.03;4825126;29;45391;-77
2023/03/18 03:57:46;;;;;;;;;9.00;5.00;;;;;14.37;100.00;100169.63;4810318;29;45478;-77
2023/03/18 04:01:05;;;;;;;;;7.67;7.67;;;;;14.47;100.00;100167.72;4825958;29;45836;-77
2023/03/18 04:03:30;;;;;;;;;8.67;6.00;;;;;14.33;100.00;100165.19;4825738;29;45564;-77
2023/03/18 04:05:56;;;;;;;;;7.00;7.00;;;;;14.38;100.00;100158.00;4810274;29;45573;-77
2023/03/18 04:08:22;;;;;;;;;7.33;6.00;;;;;14.45;100.00;100172.22;4826772;29;44946;-77
2023/03/18 04:10:47;;;;;;;;;10.00;7.33;;;;;14.44;100.00;100166.00;4825495;29;47159;-77
2023/03/18 04:13:14;;;;;;;;;4.33;3.00;;;;;14.54;100.00;100159.63;4829938;29;45363;-77
2023/03/18 04:15:39;;;;;;;;;4.67;4.67;;;;;14.45;100.00;100157.03;4846368;29;45367;-76
2023/03/18 04:18:08;;;;;;;;;3.33;3.33;;;;;14.44;100.00;100157.97;4845506;29;45417;-76
2023/03/18 04:20:34;;;;;;;;;6.00;5.00;;;;;14.44;100.00;100155.28;4862445;29;46184;-76
2023/03/18 04:23:00;;;;;;;;;3.67;3.33;;;;;14.45;100.00;100159.72;4861514;29;45630;-76
2023/03/18 04:25:28;;;;;;;;;4.67;4.00;;;;;14.54;100.00;100162.31;4845764;29;45481;-77
2023/03/18 04:27:53;;;;;;;;;8.67;5.33;;;;;14.44;100.00;100168.66;4844387;29;45420;-77
2023/03/18 04:30:22;;;;;;;;;3.00;3.00;;;;;14.47;100.00;100157.91;4844849;29;46078;-77
2023/03/18 04:32:49;;;;;;;;;4.00;4.00;;;;;14.48;100.00;100161.47;4846372;29;45559;-77
2023/03/18 04:35:15;;;;;;;;;4.67;4.67;;;;;14.48;100.00;100164.13;4863256;29;45664;-77
2023/03/18 04:37:41;;;;;;;;;5.33;5.00;;;;;14.47;100.00;100152.56;4862605;29;45419;-77
2023/03/18 04:40:06;;;;;;;;;4.67;4.00;;;;;14.48;100.00;100159.69;4863587;29;45987;-77
2023/03/18 04:42:32;;;;;;;;;3.67;3.33;;;;;14.50;100.00;100160.56;4866199;29;45442;-77
2023/03/18 04:44:58;;;;;;;;;4.00;4.00;;;;;14.47;100.00;100157.91;4866890;29;45467;-77
2023/03/18 04:47:24;;;;;;;;;1.00;1.00;;;;;14.54;100.00;100164.06;4849552;29;45462;-77
2023/03/18 04:49:50;;;;;;;;;3.00;3.00;;;;;14.57;100.00;100161.41;4864415;29;45482;-77
2023/03/18 04:52:15;;;;;;;;;1.00;1.00;;;;;14.62;100.00;100148.84;4849074;29;45879;-77
2023/03/18 04:54:47;;;;;;;;;3.67;3.00;;;;;14.74;100.00;100161.19;4856461;29;45403;-77
2023/03/18 04:57:12;;;;;;;;;3.67;2.67;;;;;14.77;100.00;100159.38;4848264;29;45473;-77
2023/03/18 04:59:38;;;;;;;;;4.00;4.00;;;;;14.93;100.00;100157.38;4848169;29;45678;-77
2023/03/18 05:02:03;;;;;;;;;3.67;3.67;;;;;14.88;100.00;100153.88;4846249;29;45456;-76
2023/03/18 05:04:29;;;;;;;;;4.00;4.00;;;;;14.81;100.00;100157.53;4845671;29;45489;-77
2023/03/18 05:06:54;;;;;;;;;4.00;4.00;;;;;14.73;100.00;100160.31;4847722;29;45408;-77
2023/03/18 05:09:20;;;;;;;;;5.67;4.00;;;;;14.65;100.00;100155.97;4846844;29;45411;-77
2023/03/18 05:11:45;;;;;;;;;4.67;4.67;;;;;14.57;100.00;100154.25;4846161;29;45436;-76
2023/03/18 05:14:10;;;;;;;;;4.00;4.00;;;;;14.56;100.00;100156.94;4848055;29;45676;-77
2023/03/18 05:16:36;;;;;;;;;4.00;4.00;;;;;14.51;100.00;100158.78;4847624;29;45466;-77
2023/03/18 05:19:02;;;;;;;;;4.67;4.67;;;;;14.50;100.00;100155.22;4847425;29;46099;-77
2023/03/18 05:21:27;;;;;;;;;3.00;3.00;;;;;14.43;100.00;100158.84;4831052;29;45513;-77
2023/03/18 05:23:56;;;;;;;;;3.00;3.00;;;;;14.54;100.00;100148.94;4847917;29;45452;-77
2023/03/18 05:26:22;;;;;;;;;3.33;2.33;;;;;14.35;100.00;100147.34;4848108;29;45732;-77
2023/03/18 05:28:47;;;;;;;;;2.00;2.00;;;;;14.33;100.00;100149.16;4847465;29;45497;-77
2023/03/18 05:31:13;;;;;;;;;4.67;3.67;;;;;14.32;100.00;100139.34;4847348;29;45807;-77
2023/03/18 05:33:40;;;;;;;;;3.00;3.00;;;;;14.27;100.00;100143.88;4846534;29;45549;-75
2023/03/18 05:36:06;;;;;;;;;4.67;4.67;;;;;14.20;100.00;100143.06;4829099;29;45598;-76
2023/03/18 05:38:32;;;;;;;;;4.00;4.00;;;;;14.20;100.00;100143.06;4829723;29;47434;-77
2023/03/18 05:40:57;;;;;;;;;3.00;3.00;;;;;14.16;100.00;100152.91;4814209;29;45525;-77
2023/03/18 05:43:23;;;;;;;;;3.00;3.00;;;;;14.13;100.00;100152.03;4846339;29;45318;-77
2023/03/18 05:45:49;;;;;;;;;4.00;4.00;;;;;14.04;100.00;100141.41;4844413;29;45430;-77
2023/03/18 05:48:16;;;;;;;;;4.67;4.00;;;;;14.02;100.00;100141.44;4845773;29;45486;-77
2023/03/18 05:50:42;;;;;;;;;4.33;4.33;;;;;14.06;100.00;100140.53;4828757;29;45182;-77
2023/03/18 05:53:15;;;;;;;;;2.00;2.00;;;;;14.13;100.00;100144.88;4846869;29;45799;-77
2023/03/18 05:55:43;;;;;;;;;2.00;2.00;;;;;14.03;100.00;100147.69;4845447;29;45468;-76
2023/03/18 05:58:09;;;;;;;;;2.00;2.00;;;;;14.00;100.00;100145.94;4845342;29;45661;-77
2023/03/18 06:00:36;;;;;;;;;1.67;1.67;;;;;13.93;100.00;100150.44;4828379;29;45361;-77
2023/03/18 06:03:02;;;;;;;;;1.67;1.67;;;;;13.92;100.00;100154.00;4845290;29;45425;-77
2023/03/18 06:05:28;;;;;;;;;3.33;3.33;;;;;14.01;100.00;100153.91;4846108;29;45541;-78
2023/03/18 06:07:54;;;;;;;;;2.00;2.00;;;;;13.98;100.00;100150.41;4845536;29;45764;-77
2023/03/18 06:10:21;;;;;;;;;2.00;2.00;;;;;14.04;100.00;100149.44;4846540;29;45402;-76
2023/03/18 06:12:48;;;;;;;;;3.00;3.00;;;;;13.97;100.00;100153.97;4846453;29;45799;-77
2023/03/18 06:15:14;;;;;;;;;2.00;2.00;;;;;13.86;100.00;100145.19;4848726;29;45725;-78
2023/03/18 06:17:40;;;;;;;;;3.00;3.00;;;;;13.92;100.00;100159.38;4829280;29;46917;-77
2023/03/18 06:20:10;;;;;;;;;3.00;3.00;;;;;13.95;100.00;100158.44;4846004;29;45488;-77
2023/03/18 06:22:37;;;;;;;;;4.33;3.00;;;;;13.94;100.00;100162.03;4846031;29;45453;-77
2023/03/18 06:25:03;;;;;;;;;2.67;2.67;;;;;14.01;100.00;100163.72;4846323;29;45377;-76
2023/03/18 06:27:30;;;;;;;;;3.00;3.00;;;;;14.13;100.00;100165.41;4828498;29;45431;-77
2023/03/18 06:29:56;;;;;;;;;3.00;3.00;;;;;14.35;100.00;100163.41;4845443;29;45520;-77
2023/03/18 06:32:22;;;;;;;;;6.67;6.67;;;;;14.50;100.00;100160.56;4845100;29;45753;-76
2023/03/18 06:34:48;;;;;;;;;3.00;3.00;;;;;14.67;100.00;100168.41;4828663;29;45750;-77
2023/03/18 06:37:14;;;;;;;;;7.00;4.33;;;;;14.76;100.00;100162.94;4828962;29;46260;-77
2023/03/18 06:39:39;;;;;;;;;4.33;4.33;;;;;14.76;100.00;100160.25;4828824;29;45868;-77
2023/03/18 06:42:05;;;;;;;;;3.00;3.00;;;;;14.82;100.00;100170.00;4829295;29;45791;-76
2023/03/18 06:44:31;;;;;;;;;4.33;3.00;;;;;14.76;100.00;100165.63;4829204;29;45462;-77
2023/03/18 06:46:56;;;;;;;;;2.33;2.33;;;;;14.78;100.00;100168.28;4845869;29;45729;-77
2023/03/18 06:49:22;;;;;;;;;5.00;5.00;;;;;14.92;100.00;100166.31;4846973;29;45725;-77
2023/03/18 06:51:48;;;;;;;;;2.00;2.00;;;;;14.96;100.00;100167.16;4846309;29;45766;-77
2023/03/18 06:54:14;;;;;;;;;3.67;3.67;;;;;15.17;100.00;100169.56;4829024;29;45524;-76
2023/03/18 06:56:40;;;;;;;;;3.00;3.00;;;;;15.30;100.00;100174.75;4844978;29;45421;-77
2023/03/18 06:59:08;;;;;;;;;4.00;4.00;;;;;15.27;100.00;100162.28;4829177;29;45802;-76
2023/03/18 07:01:34;;;;;;;;;1.67;1.67;;;;;15.28;100.00;100173.88;4831739;29;45495;-76
2023/03/18 07:04:01;;;;;;;;;3.00;3.00;;;;;15.26;100.00;100165.84;4826656;29;45525;-77
2023/03/18 07:06:28;;;;;;;;;3.00;3.00;;;;;15.33;100.00;100172.00;4826978;29;45498;-76
2023/03/18 07:08:54;;;;;;;;;2.33;2.33;;;;;15.36;100.00;100170.16;4827014;29;45444;-76
2023/03/18 07:11:20;;;;;;;;;3.67;3.00;;;;;15.46;100.00;100170.91;4826124;29;45305;-76
2023/03/18 07:13:46;;;;;;;;;3.00;3.00;;;;;15.42;100.00;100171.00;4827641;29;45413;-77
2023/03/18 07:16:12;;;;;;;;;2.33;1.67;;;;;15.40;100.00;100179.94;4827460;29;46004;-77
2023/03/18 07:18:37;;;;;;;;;2.67;2.67;;;;;15.37;100.00;100184.44;4810611;29;45405;-77
2023/03/18 07:21:04;;;;;;;;;2.00;1.33;;;;;15.37;100.00;100180.00;4826672;29;45848;-76
2023/03/18 07:23:29;;;;;;;;;3.33;3.33;;;;;15.27;100.00;100182.81;4825567;29;44856;-77
2023/03/18 07:25:55;;;;;;;;;3.00;3.00;;;;;15.37;100.00;100193.41;4825322;29;45541;-77
2023/03/18 07:28:20;;;;;;;;;2.67;2.00;;;;;15.46;100.00;100188.81;4826822;29;45548;-77
2023/03/18 07:30:49;;;;;;;;;3.00;3.00;;;;;15.54;100.00;100193.13;4827270;29;45461;-77
2023/03/18 07:33:14;;;;;;;;;1.00;1.00;;;;;15.54;100.00;100192.25;4827520;29;45400;-76
2023/03/18 07:35:43;;;;;;;;;1.00;1.00;;;;;15.68;100.00;100184.88;4825897;29;45432;-77
2023/03/18 07:38:09;;;;;;;;;1.00;1.00;;;;;15.58;100.00;100188.63;4827216;29;45477;-77
2023/03/18 07:40:35;;;;;;;;;1.00;1.00;;;;;15.62;100.00;100187.66;4826262;29;45505;-77
2023/03/18 07:43:00;;;;;;;;;3.00;3.00;;;;;15.71;100.00;100190.19;4809355;29;45419;-77
2023/03/18 07:45:27;;;;;;;;;1.00;1.00;;;;;15.69;100.00;100175.91;4809213;29;48293;-77
2023/03/18 07:47:52;;;;;;;;;1.00;1.00;;;;;15.77;100.00;100178.50;4826641;29;45464;-77
2023/03/18 07:50:17;;;;;;;;;2.00;2.00;;;;;15.95;100.00;100180.88;4827496;29;45678;-77
2023/03/18 07:52:44;;;;;;;;;1.33;1.33;;;;;16.04;100.00;100176.25;4827426;29;45408;-76
2023/03/18 07:55:11;;;;;;;;;2.00;1.00;;;;;15.95;100.00;100178.19;4808215;29;47689;-76
2023/03/18 07:57:37;;;;;;;;;1.33;1.33;;;;;16.05;100.00;100184.28;4825028;29;45480;-77
2023/03/18 08:00:05;;;;;;;;;1.67;1.67;;;;;16.28;100.00;100174.94;4809486;29;45537;-77
2023/03/18 08:02:30;;;;;;;;;5.33;4.33;;;;;16.23;100.00;100179.53;4808798;29;45502;-77
2023/03/18 08:04:56;;;;;;;;;2.00;2.00;;;;;16.27;100.00;100183.91;4825665;29;45423;-77
2023/03/18 08:07:28;;;;;;;;;1.00;1.00;;;;;16.55;100.00;100190.53;4841071;29;45650;-77
2023/03/18 08:09:54;;;;;;;;;2.00;2.00;;;;;16.62;100.00;100187.72;4844028;29;45350;-77
2023/03/18 08:12:20;;;;;;;;;4.00;2.00;;;;;16.72;100.00;100200.06;4843496;29;45512;-76
2023/03/18 08:14:47;;;;;;;;;3.00;3.00;;;;;16.75;100.00;100206.25;4843980;29;45530;-76
2023/03/18 08:17:13;;;;;;;;;3.00;3.00;;;;;16.67;100.00;100199.28;4846225;29;45505;-77
2023/03/18 08:19:38;;;;;;;;;2.00;2.00;;;;;16.69;100.00;100189.41;4846881;29;45456;-77
2023/03/18 08:22:05;;;;;;;;;1.67;1.67;;;;;17.02;100.00;100205.75;4847089;29;45545;-77
2023/03/18 08:24:31;;;;;;;;;3.00;3.00;;;;;16.87;100.00;100202.47;4831133;29;47218;-77
2023/03/18 08:26:57;;;;;;;;;2.00;2.00;;;;;16.88;100.00;100204.22;4846133;29;45442;-76
2023/03/18 08:29:22;;;;;;;;;2.00;2.00;;;;;16.82;100.00;100193.63;4829495;29;45618;-76
2023/03/18 08:31:48;;;;;;;;;1.67;1.67;;;;;16.86;100.00;100195.31;4846313;29;45874;-78
2023/03/18 08:34:14;;;;;;;;;1.00;1.00;;;;;16.91;100.00;100185.38;4846668;29;45488;-76
2023/03/18 08:36:41;;;;;;;;;3.67;3.33;;;;;17.10;100.00;100193.91;4828712;29;45509;-76
2023/03/18 08:39:08;;;;;;;;;3.00;3.00;;;;;17.09;100.00;100184.09;4845324;29;45524;-77
2023/03/18 08:41:34;;;;;;;;;1.67;1.67;;;;;17.19;100.00;100188.38;4845402;29;45632;-77
2023/03/18 08:44:01;;;;;;;;;3.00;3.00;;;;;17.26;100.00;100191.78;4847047;29;45895;-77
2023/03/18 08:46:28;;;;;;;;;1.33;1.00;;;;;17.37;100.00;100195.13;4829875;29;45438;-77
2023/03/18 08:48:54;;;;;;;;;2.00;1.33;;;;;17.36;100.00;100187.97;4847005;29;45565;-77
2023/03/18 08:51:21;;;;;;;;;1.33;1.33;;;;;17.56;100.00;100183.94;4830078;29;45932;-76
2023/03/18 08:53:49;;;;;;;;;1.33;1.33;;;;;17.92;100.00;100184.00;4846264;29;45541;-77
2023/03/18 08:56:22;;;;;;;;;2.67;2.67;;;;;18.08;100.00;100196.16;4847560;29;45510;-77
2023/03/18 08:58:48;;;;;;;;;1.75;1.00;;;;;18.04;100.00;100194.47;4864195;29;45499;-77
2023/03/18 09:01:14;;;;;;;;;1.75;1.75;;;;;17.98;100.00;100186.56;4865348;29;45366;-76
2023/03/18 09:03:40;;;;;;;;;1.25;1.25;;;;;17.97;100.00;100196.41;4848946;29;48087;-76
2023/03/18 09:06:12;;;;;;;;;2.67;2.67;;;;;18.06;100.00;100184.53;4819141;29;45465;-76
2023/03/18 09:08:38;;;;;;;;;2.00;2.00;;;;;18.05;100.00;100188.16;4829641;29;45537;-77
2023/03/18 09:11:06;;;;;;;;;1.33;1.33;;;;;18.16;100.00;100183.38;4830610;29;45527;-77
2023/03/18 09:13:32;;;;;;;;;0.50;0.50;;;;;18.11;100.00;100198.75;4847324;29;45826;-77
2023/03/18 09:15:58;;;;;;;;;1.00;1.00;;;;;18.32;100.00;100188.34;4846219;29;45516;-77
2023/03/18 09:18:27;;;;;;;;;1.00;1.00;;;;;18.52;100.00;100196.78;4830373;29;45517;-76
2023/03/18 09:20:52;;;;;;;;;1.00;1.00;;;;;18.36;100.00;100184.63;4830773;29;45434;-76
2023/03/18 09:23:18;;;;;;;;;2.00;2.00;;;;;18.41;100.00;100189.94;4829997;29;46862;-77
2023/03/18 09:25:45;;;;;;;;;1.75;1.75;;;;;18.47;100.00;100193.31;4829154;29;45464;-77
2023/03/18 09:28:18;;;;;;;;;2.25;2.25;;;;;18.38;100.00;100193.59;4832184;29;45522;-77
2023/03/18 09:30:44;;;;;;;;;3.00;1.00;;;;;18.28;100.00;100186.66;4831289;29;45427;-77
2023/03/18 09:33:10;;;;;;;;;2.00;2.00;;;;;18.22;100.00;100186.81;4829224;29;45442;-77
2023/03/18 09:35:36;;;;;;;;;3.50;2.00;;;;;18.18;100.00;100186.03;4846070;29;45421;-77
2023/03/18 09:38:02;;;;;;;;;2.00;2.00;;;;;18.29;100.00;100188.44;4846391;29;45218;-77
2023/03/18 09:40:32;;;;;;;;;1.75;1.75;;;;;18.45;100.00;100194.31;4829581;29;44880;-77
2023/03/18 09:43:10;;;;;;;;;0.50;0.50;;;;;18.63;100.00;100192.91;4846439;29;45502;-77
2023/03/18 09:45:49;;;;;;;;;1.00;1.00;;;;;18.65;100.00;100196.44;4846091;29;45396;-77
2023/03/18 09:48:29;;;;;;;;;3.00;2.00;;;;;18.69;100.00;100192.75;4846150;29;45485;-77
2023/03/18 09:51:13;;;;;;;;;5.00;3.00;;;;;18.64;100.00;100190.16;4829416;29;45456;-77
2023/03/18 09:53:48;;;;;;;;;1.75;1.00;;;;;18.62;100.00;100185.75;4847832;29;46352;-77
2023/03/18 09:56:25;;;;;;;;;2.33;2.33;;;;;18.67;100.00;100191.91;4830572;29;45432;-77
2023/03/18 09:59:06;;;;;;;;;3.33;2.00;;;;;18.74;100.00;100190.78;4847777;29;45423;-76
2023/03/18 10:01:36;;;;;;;;;1.50;1.50;;;;;18.76;100.00;100199.72;4847189;29;45590;-77
2023/03/18 10:04:12;;;;;;;;;2.00;2.00;;;;;18.81;100.00;100197.81;4846276;29;45274;-77
2023/03/18 10:06:41;;;;;;;;;1.67;1.67;;;;;18.79;100.00;100202.38;4846144;29;45440;-77
2023/03/18 10:09:19;;;;;;;;;1.00;1.00;;;;;18.74;100.00;100201.56;4846418;29;45536;-77
2023/03/18 10:11:46;;;;;;;;;2.00;2.00;;;;;18.59;100.00;100203.75;4837046;29;45551;-77
2023/03/18 10:14:53;;;;;;;;;1.00;1.00;;;;;18.67;100.00;100205.38;4847766;29;47050;-76
2023/03/18 10:17:31;;;;;;;;;1.00;1.00;;;;;18.66;100.00;100211.66;4845640;29;46084;-77
2023/03/18 10:20:03;;;;;;;;;2.00;2.00;;;;;18.66;100.00;100203.59;4866199;29;45742;-77
2023/03/18 10:22:58;;;;;;;;;2.25;2.00;;;;;18.94;100.00;100212.69;4867058;29;45501;-78
2023/03/18 10:25:49;;;;;;;;;1.00;1.00;;;;;19.12;100.00;100205.88;4853832;29;46527;-77
2023/03/18 10:28:44;;;;;;;;;2.00;2.00;;;;;19.40;100.00;100215.81;4848092;29;45849;-78
2023/03/18 10:31:43;;;;;;;;;1.00;1.00;;;;;19.48;99.86;100227.25;4865343;29;45540;-77
2023/03/18 10:34:22;;;;;;;;;2.00;2.00;;;;;19.58;97.06;100217.06;4845037;29;45605;-77
2023/03/18 10:37:12;;;;;;;;;0.25;0.25;;;;;19.72;99.03;100205.88;4862913;29;47173;-78
2023/03/18 10:39:38;;;;;;;;;2.00;2.00;;;;;19.63;98.94;100211.53;4864675;29;45493;-78
2023/03/18 10:42:26;;;;;;;;;0.75;0.75;;;;;19.84;100.00;100201.91;4864726;29;45442;-78
2023/03/18 10:45:23;;;;;;;;;2.00;2.00;;;;;19.78;94.56;100201.16;4847113;29;45561;-77
2023/03/18 10:48:03;;;;;;;;;1.50;1.50;;;;;19.84;98.91;100191.13;4853894;29;46085;-78
2023/03/18 10:50:38;;;;;;;;;2.00;2.00;;;;;19.96;99.51;100193.41;4865507;29;45280;-77
2023/03/18 10:53:44;;;;;;;;;1.50;1.50;;;;;20.11;100.00;100192.88;4863039;29;45456;-77
2023/03/18 10:56:18;;;;;;;;;1.00;1.00;;;;;20.19;93.11;100198.88;4793249;29;45501;-77
2023/03/18 10:58:45;;;;;;;;;2.75;2.50;;;;;20.25;100.00;100197.78;4790334;29;46847;-77
2023/03/18 11:01:16;;;;;;;;;2.00;2.00;;;;;20.36;97.55;100205.53;4790460;29;45706;-77
2023/03/18 11:03:57;;;;;;;;;1.75;1.75;;;;;20.44;96.17;100197.16;4790332;29;44786;-77
2023/03/18 11:06:35;;;;;;;;;1.00;1.00;;;;;20.37;88.79;100196.50;4790653;29;45433;-77
2023/03/18 11:09:07;;;;;;;;;0.75;0.75;;;;;20.28;91.23;100196.78;4787550;29;45520;-76
2023/03/18 11:11:37;;;;;;;;;1.00;1.00;;;;;20.07;88.75;100204.69;4791187;29;45367;-77
2023/03/18 11:14:06;;;;;;;;;3.00;2.00;;;;;20.00;92.28;100205.84;4790859;29;45522;-77
2023/03/18 11:16:41;;;;;;;;;1.00;1.00;;;;;19.95;90.77;100199.72;4791386;29;45534;-77
2023/03/18 11:19:28;;;;;;;;;1.50;1.50;;;;;19.97;91.08;100203.25;4790426;29;45626;-77
2023/03/18 11:22:21;;;;;;;;;3.00;2.00;;;;;19.85;92.22;100199.13;4788225;29;45461;-78